createdAt,value
2019-01-22T00:00:07.579Z,4.57
2019-01-22T00:02:36.142Z,4.10
2019-01-22T00:05:06.713Z,3.93
2019-01-22T00:07:34.962Z,5.93
2019-01-22T00:10:04.652Z,4.60
2019-01-22T00:12:32.893Z,4.47
2019-01-22T00:15:01.714Z,6.63
2019-01-22T00:17:29.957Z,3.63
2019-01-22T00:19:58.564Z,3.60
2019-01-22T00:22:26.812Z,4.90
2019-01-22T00:24:55.049Z,4.97
2019-01-22T00:27:23.286Z,4.60
2019-01-22T00:29:51.526Z,3.80
2019-01-22T00:32:19.761Z,4.07
2019-01-22T00:34:48.381Z,4.63
2019-01-22T00:37:17.285Z,5.43
2019-01-22T00:39:45.533Z,4.03
2019-01-22T00:42:13.765Z,4.03
2019-01-22T00:44:42.028Z,3.10
2019-01-22T00:47:10.339Z,5.20
2019-01-22T00:49:38.581Z,4.17
2019-01-22T00:52:06.812Z,3.43
2019-01-22T00:54:35.082Z,3.60
2019-01-22T00:57:03.385Z,3.80
2019-01-22T00:59:31.645Z,3.03
2019-01-22T01:01:59.877Z,4.63
2019-01-22T01:04:28.122Z,4.53
2019-01-22T01:06:56.357Z,4.33
2019-01-22T01:09:24.596Z,2.83
2019-01-22T01:11:52.830Z,4.07
2019-01-22T01:14:21.068Z,4.07
2019-01-22T01:16:49.974Z,4.33
2019-01-22T01:19:18.240Z,3.83
2019-01-22T01:21:46.470Z,3.50
2019-01-22T01:24:14.717Z,3.93
2019-01-22T01:26:43.614Z,5.30
2019-01-22T01:29:11.882Z,3.43
2019-01-22T01:31:40.426Z,3.60
2019-01-22T01:34:11.905Z,4.10
2019-01-22T01:36:40.161Z,6.50
2019-01-22T01:39:09.082Z,3.20
2019-01-22T01:41:37.313Z,3.13
2019-01-22T01:44:05.555Z,3.67
2019-01-22T01:46:34.188Z,3.33
2019-01-22T01:49:02.417Z,3.07
2019-01-22T01:51:30.760Z,3.40
2019-01-22T01:53:59.009Z,4.40
2019-01-22T01:56:27.250Z,4.50
2019-01-22T01:58:55.504Z,4.07
2019-01-22T02:01:24.133Z,4.70
2019-01-22T02:03:52.356Z,4.17
2019-01-22T02:06:20.625Z,3.40
2019-01-22T02:08:48.953Z,4.37
2019-01-22T02:11:17.189Z,5.00
2019-01-22T02:13:45.489Z,2.90
2019-01-22T02:16:23.106Z,4.73
2019-01-22T02:19:12.469Z,3.50
2019-01-22T02:22:02.104Z,4.23
2019-01-22T02:24:39.340Z,4.87
2019-01-22T02:27:25.802Z,4.13
2019-01-22T02:30:21.393Z,3.00
2019-01-22T02:33:11.088Z,4.93
2019-01-22T02:35:48.169Z,4.33
2019-01-22T02:38:34.596Z,2.07
2019-01-22T02:41:06.082Z,2.60
2019-01-22T02:43:54.050Z,3.63
2019-01-22T02:46:31.507Z,2.93
2019-01-22T02:49:37.966Z,2.50
2019-01-22T02:52:27.780Z,3.00
2019-01-22T02:54:59.378Z,3.93
2019-01-22T02:57:42.726Z,2.70
2019-01-22T03:00:26.169Z,3.17
2019-01-22T03:03:18.307Z,3.23
2019-01-22T03:05:52.780Z,4.90
2019-01-22T03:08:45.785Z,3.80
2019-01-22T03:11:38.332Z,2.97
2019-01-22T03:14:34.796Z,3.30
2019-01-22T03:17:22.606Z,2.97
2019-01-22T03:20:00.258Z,3.00
2019-01-22T03:22:37.593Z,2.73
2019-01-22T03:25:17.860Z,3.40
2019-01-22T03:27:55.506Z,3.37
2019-01-22T03:30:43.607Z,3.80
2019-01-22T03:33:32.956Z,5.00
2019-01-22T03:36:22.878Z,3.87
2019-01-22T03:39:13.466Z,2.90
2019-01-22T03:42:00.009Z,4.07
2019-01-22T03:44:46.129Z,2.93
2019-01-22T03:47:23.354Z,3.23
2019-01-22T03:50:06.788Z,3.27
2019-01-22T03:53:01.922Z,2.20
2019-01-22T03:55:48.234Z,2.40
2019-01-22T03:58:16.469Z,2.47
2019-01-22T04:00:44.711Z,3.80
2019-01-22T04:03:12.949Z,2.40
2019-01-22T04:05:41.262Z,2.43
2019-01-22T04:08:09.498Z,2.97
2019-01-22T04:10:38.013Z,2.80
2019-01-22T04:13:06.526Z,4.10
2019-01-22T04:15:36.972Z,2.80
2019-01-22T04:18:05.787Z,2.23
2019-01-22T04:20:34.112Z,2.67
2019-01-22T04:23:02.677Z,2.30
2019-01-22T04:25:42.914Z,3.03
2019-01-22T04:28:32.489Z,3.20
2019-01-22T04:31:06.591Z,4.10
2019-01-22T04:34:01.222Z,2.63
2019-01-22T04:36:50.199Z,2.47
2019-01-22T04:39:48.825Z,2.53
2019-01-22T04:42:32.327Z,2.17
2019-01-22T04:45:28.079Z,3.57
2019-01-22T04:48:20.506Z,3.10
2019-01-22T04:50:54.897Z,2.77
2019-01-22T04:53:41.598Z,2.97
2019-01-22T04:56:18.893Z,3.10
2019-01-22T04:58:53.376Z,2.70
2019-01-22T05:01:24.883Z,2.00
2019-01-22T05:04:05.447Z,2.30
2019-01-22T05:06:52.452Z,3.43
2019-01-22T05:09:35.877Z,2.00
2019-01-22T05:12:19.810Z,3.37
2019-01-22T05:14:51.371Z,3.23
2019-01-22T05:17:22.872Z,1.97
2019-01-22T05:19:54.374Z,2.70
2019-01-22T05:22:25.874Z,3.20
2019-01-22T05:25:09.279Z,2.93
2019-01-22T05:27:43.505Z,2.17
2019-01-22T05:30:27.035Z,2.87
2019-01-22T05:33:18.525Z,2.97
2019-01-22T05:36:06.825Z,4.23
2019-01-22T05:38:38.443Z,3.50
2019-01-22T05:41:22.145Z,2.80
2019-01-22T05:43:53.730Z,2.03
2019-01-22T05:46:34.065Z,5.93
2019-01-22T05:49:26.355Z,2.00
2019-01-22T05:52:00.829Z,7.70
2019-01-22T05:54:41.246Z,3.67
2019-01-22T05:57:12.121Z,2.70
2019-01-22T05:59:55.479Z,2.70
2019-01-22T06:02:27.001Z,2.37
2019-01-22T06:05:04.395Z,2.60
2019-01-22T06:07:55.537Z,4.43
2019-01-22T06:10:48.458Z,4.93
2019-01-22T06:13:34.811Z,18.73
2019-01-22T06:16:08.862Z,27.27
2019-01-22T06:18:40.433Z,26.63
2019-01-22T06:21:17.727Z,25.07
2019-01-22T06:24:10.066Z,23.97
2019-01-22T06:26:50.510Z,25.60
2019-01-22T06:29:33.330Z,24.40
2019-01-22T06:32:17.066Z,23.27
2019-01-22T06:35:07.908Z,23.03
2019-01-22T06:37:39.518Z,20.70
2019-01-22T06:40:16.764Z,19.40
2019-01-22T06:43:18.314Z,18.13
2019-01-22T06:45:52.689Z,24.00
2019-01-22T06:48:24.230Z,20.47
2019-01-22T06:51:13.261Z,33.83
2019-01-22T06:53:50.561Z,18.73
2019-01-22T06:56:36.801Z,15.90
2019-01-22T06:59:11.031Z,15.73
2019-01-22T07:01:54.638Z,22.03
2019-01-22T07:04:40.839Z,16.23
2019-01-22T07:07:33.361Z,15.83
2019-01-22T07:10:07.573Z,15.70
2019-01-22T07:12:56.846Z,14.20
2019-01-22T07:15:37.545Z,17.83
2019-01-22T07:18:24.128Z,14.07
2019-01-22T07:21:20.110Z,13.90
2019-01-22T07:24:00.586Z,16.37
2019-01-22T07:26:50.273Z,15.73
2019-01-22T07:29:38.473Z,20.27
2019-01-22T07:32:22.243Z,13.10
2019-01-22T07:35:23.952Z,17.13
2019-01-22T07:38:04.626Z,11.33
2019-01-22T07:40:58.906Z,14.40
2019-01-22T07:43:33.314Z,11.87
2019-01-22T07:46:35.410Z,10.60
2019-01-22T07:49:28.963Z,9.97
2019-01-22T07:52:03.424Z,10.80
2019-01-22T07:54:34.913Z,7.73
2019-01-22T07:57:18.196Z,8.67
2019-01-22T08:00:01.691Z,7.60
2019-01-22T08:02:33.197Z,9.53
2019-01-22T08:05:23.837Z,7.97
2019-01-22T08:08:20.960Z,8.20
2019-01-22T08:11:11.723Z,9.57
2019-01-22T08:13:55.209Z,9.20
2019-01-22T08:16:44.577Z,7.40
2019-01-22T08:19:21.567Z,7.87
2019-01-22T08:22:01.921Z,6.97
2019-01-22T08:24:45.265Z,9.73
2019-01-22T08:27:23.002Z,8.07
2019-01-22T08:29:57.365Z,7.97
2019-01-22T08:32:34.705Z,6.27
2019-01-22T08:35:14.840Z,6.23
2019-01-22T08:38:05.939Z,7.00
2019-01-22T08:40:55.310Z,7.13
2019-01-22T08:43:38.657Z,7.27
2019-01-22T08:46:10.250Z,7.37
2019-01-22T08:49:15.166Z,6.03
2019-01-22T08:51:55.385Z,10.47
2019-01-22T08:54:44.282Z,6.83
2019-01-22T08:57:15.839Z,6.50
2019-01-22T08:59:47.408Z,6.47
2019-01-22T09:02:33.382Z,6.67
2019-01-22T09:05:28.875Z,5.47
2019-01-22T09:08:15.182Z,5.77
2019-01-22T09:11:03.399Z,5.70
2019-01-22T09:13:51.212Z,5.60
2019-01-22T09:16:31.427Z,5.50
2019-01-22T09:19:05.410Z,6.77
2019-01-22T09:21:45.873Z,7.87
2019-01-22T09:24:20.309Z,5.10
2019-01-22T09:27:13.001Z,5.50
2019-01-22T09:29:47.181Z,4.50
2019-01-22T09:32:24.425Z,4.83
2019-01-22T09:35:29.332Z,5.03
2019-01-22T09:37:58.315Z,5.53
2019-01-22T09:40:26.549Z,4.33
2019-01-22T09:42:54.793Z,6.60
2019-01-22T09:45:23.038Z,5.83
2019-01-22T09:47:51.281Z,6.60
2019-01-22T09:50:19.514Z,5.00
2019-01-22T09:52:47.762Z,5.40
2019-01-22T09:55:22.148Z,6.80
2019-01-22T09:57:45.965Z,4.87
2019-01-22T10:00:19.405Z,5.90
2019-01-22T10:02:47.650Z,3.77
2019-01-22T10:05:16.049Z,4.00
2019-01-22T10:07:44.289Z,6.40
2019-01-22T10:10:18.274Z,3.77
2019-01-22T10:12:46.522Z,4.40
2019-01-22T10:15:17.649Z,4.50
2019-01-22T10:17:45.889Z,4.83
2019-01-22T10:20:17.065Z,3.57
2019-01-22T10:22:45.378Z,5.20
2019-01-22T10:25:13.614Z,4.23
2019-01-22T10:27:41.866Z,4.40
2019-01-22T10:30:18.937Z,4.23
2019-01-22T10:32:47.182Z,4.03
2019-01-22T10:35:15.414Z,3.73
2019-01-22T10:37:43.661Z,3.80
2019-01-22T10:40:17.622Z,4.57
2019-01-22T10:42:45.870Z,4.47
2019-01-22T10:45:16.049Z,4.33
2019-01-22T10:47:44.293Z,3.93
2019-01-22T10:50:20.457Z,3.77
2019-01-22T10:52:48.709Z,3.93
2019-01-22T10:55:16.934Z,6.30
2019-01-22T10:57:45.182Z,5.80
2019-01-22T11:00:25.154Z,3.10
2019-01-22T11:02:53.393Z,4.20
2019-01-22T11:05:24.886Z,3.60
2019-01-22T11:07:53.130Z,3.50
2019-01-22T11:10:21.365Z,3.60
2019-01-22T11:12:49.617Z,3.53
2019-01-22T11:15:17.846Z,3.10
2019-01-22T11:17:46.089Z,3.50
2019-01-22T11:20:30.753Z,4.50
2019-01-22T11:22:58.993Z,4.37
2019-01-22T11:25:31.957Z,4.00
2019-01-22T11:28:00.201Z,3.63
2019-01-22T11:30:28.436Z,3.20
2019-01-22T11:32:56.746Z,3.03
2019-01-22T11:35:25.413Z,4.67
2019-01-22T11:37:53.827Z,2.60
2019-01-22T11:40:37.253Z,3.10
2019-01-22T11:43:05.501Z,4.97
2019-01-22T11:45:33.737Z,3.67
2019-01-22T11:48:01.977Z,3.67
2019-01-22T11:50:30.218Z,3.33
2019-01-22T11:52:58.461Z,3.10
2019-01-22T11:55:26.688Z,2.73
2019-01-22T11:57:54.938Z,3.63
2019-01-22T12:00:39.013Z,3.27
2019-01-22T12:03:07.620Z,2.97
2019-01-22T12:05:35.902Z,3.20
2019-01-22T12:08:04.151Z,2.73
2019-01-22T12:10:32.385Z,2.77
2019-01-22T12:13:00.621Z,3.00
2019-01-22T12:15:32.119Z,3.00
2019-01-22T12:18:00.351Z,3.73
2019-01-22T12:20:31.718Z,3.53
2019-01-22T12:23:00.010Z,3.13
2019-01-22T12:25:28.259Z,2.67
2019-01-22T12:27:56.489Z,2.40
2019-01-22T12:30:29.969Z,2.80
2019-01-22T12:32:58.200Z,3.13
2019-01-22T12:35:26.441Z,3.73
2019-01-22T12:37:54.677Z,3.40
2019-01-22T12:40:24.965Z,3.03
2019-01-22T12:42:53.369Z,4.53
2019-01-22T12:45:23.845Z,4.50
2019-01-22T12:47:52.077Z,3.57
2019-01-22T12:50:25.933Z,3.60
2019-01-22T12:52:52.322Z,2.80
2019-01-22T12:55:20.570Z,4.10
2019-01-22T12:57:48.804Z,5.87
2019-01-22T13:00:25.082Z,5.17
2019-01-22T13:02:53.316Z,5.50
2019-01-22T13:05:42.882Z,3.73
2019-01-22T13:08:11.113Z,3.33
2019-01-22T13:10:39.360Z,5.80
2019-01-22T13:13:07.585Z,14.20
2019-01-22T13:15:35.830Z,5.67
2019-01-22T13:18:04.065Z,4.10
2019-01-22T13:20:32.309Z,4.33
2019-01-22T13:23:00.538Z,4.40
2019-01-22T13:25:28.789Z,5.30
2019-01-22T13:27:57.014Z,4.07
2019-01-22T13:30:26.994Z,6.97
2019-01-22T13:32:55.226Z,9.27
2019-01-22T13:35:23.464Z,5.40
2019-01-22T13:37:51.696Z,5.47
2019-01-22T13:40:19.945Z,5.87
2019-01-22T13:42:48.182Z,4.43
2019-01-22T13:45:25.319Z,5.73
2019-01-22T13:47:54.419Z,11.07
2019-01-22T13:50:22.674Z,6.20
2019-01-22T13:52:50.940Z,5.53
2019-01-22T13:55:27.622Z,5.83
2019-01-22T13:57:55.849Z,9.50
2019-01-22T14:00:26.236Z,6.27
2019-01-22T14:02:55.105Z,6.70
2019-01-22T14:05:23.346Z,5.70
2019-01-22T14:07:51.578Z,4.50
2019-01-22T14:10:19.837Z,4.20
2019-01-22T14:12:48.065Z,8.53
2019-01-22T14:15:18.968Z,6.57
2019-01-22T14:17:47.244Z,7.10
2019-01-22T14:20:17.030Z,5.53
2019-01-22T14:22:45.266Z,4.70
2019-01-22T14:25:16.375Z,7.03
2019-01-22T14:27:44.605Z,5.40
2019-01-22T14:30:21.994Z,5.93
2019-01-22T14:32:50.233Z,7.47
2019-01-22T14:35:18.478Z,6.03
2019-01-22T14:37:46.877Z,5.20
2019-01-22T14:40:15.593Z,6.70
2019-01-22T14:42:43.825Z,6.23
2019-01-22T14:45:19.571Z,7.83
2019-01-22T14:47:47.801Z,5.33
2019-01-22T14:50:21.424Z,4.53
2019-01-22T14:52:49.654Z,5.60
2019-01-22T14:55:17.929Z,6.80
2019-01-22T14:57:46.165Z,6.73
2019-01-22T15:00:17.394Z,2.77
2019-01-22T15:02:45.642Z,4.93
2019-01-22T15:05:13.893Z,3.30
2019-01-22T15:07:42.137Z,4.20
2019-01-22T15:10:13.010Z,6.33
2019-01-22T15:12:43.957Z,3.87
2019-01-22T15:15:14.431Z,5.10
2019-01-22T15:17:43.339Z,5.27
2019-01-22T15:20:23.029Z,4.27
2019-01-22T15:22:51.279Z,4.43
2019-01-22T15:25:19.517Z,5.13
2019-01-22T15:27:47.764Z,15.90
2019-01-22T15:30:22.185Z,12.70
2019-01-22T15:32:50.424Z,5.93
2019-01-22T15:35:18.660Z,5.90
2019-01-22T15:37:46.897Z,7.63
2019-01-22T15:40:18.027Z,9.77
2019-01-22T15:42:46.281Z,7.90
2019-01-22T15:45:14.533Z,11.30
2019-01-22T15:47:42.774Z,9.73
2019-01-22T15:50:19.528Z,8.10
2019-01-22T15:52:47.770Z,7.87
2019-01-22T15:55:21.809Z,9.57
2019-01-22T15:57:50.057Z,12.27
2019-01-22T16:00:20.995Z,8.40
2019-01-22T16:02:49.242Z,9.43
2019-01-22T16:05:17.474Z,9.83
2019-01-22T16:07:45.725Z,7.77
2019-01-22T16:10:13.954Z,9.23
2019-01-22T16:12:42.873Z,6.57
2019-01-22T16:15:22.449Z,10.47
2019-01-22T16:17:51.034Z,10.27
2019-01-22T16:20:20.997Z,8.30
2019-01-22T16:22:49.261Z,8.33
2019-01-22T16:25:17.485Z,9.30
2019-01-22T16:27:45.737Z,11.20
2019-01-22T16:30:16.313Z,10.33
2019-01-22T16:32:44.563Z,10.23
2019-01-22T16:35:15.129Z,7.60
2019-01-22T16:37:43.370Z,7.83
2019-01-22T16:40:15.856Z,10.03
2019-01-22T16:42:44.177Z,11.70
2019-01-22T16:45:24.597Z,10.00
2019-01-22T16:47:52.845Z,8.90
2019-01-22T16:50:21.091Z,12.07
2019-01-22T16:52:49.665Z,8.87
2019-01-22T16:55:29.719Z,10.10
2019-01-22T16:57:57.964Z,6.43
2019-01-22T17:00:31.170Z,8.53
2019-01-22T17:02:59.413Z,7.33
2019-01-22T17:05:27.715Z,8.33
2019-01-22T17:07:55.957Z,8.87
2019-01-22T17:10:24.518Z,5.77
2019-01-22T17:12:52.765Z,7.20
2019-01-22T17:15:21.001Z,6.30
2019-01-22T17:17:49.247Z,9.77
2019-01-22T17:20:29.048Z,7.57
2019-01-22T17:23:01.997Z,6.40
2019-01-22T17:25:27.245Z,9.77
2019-01-22T17:27:55.489Z,8.43
2019-01-22T17:30:23.893Z,8.03
2019-01-22T17:32:53.775Z,8.47
2019-01-22T17:35:22.015Z,9.83
2019-01-22T17:37:50.269Z,10.60
2019-01-22T17:40:18.510Z,7.83
2019-01-22T17:42:46.741Z,7.90
2019-01-22T17:45:14.991Z,5.30
2019-01-22T17:47:43.221Z,10.07
2019-01-22T17:50:15.968Z,6.63
2019-01-22T17:52:44.202Z,7.80
2019-01-22T17:55:13.085Z,5.87
2019-01-22T17:57:41.319Z,8.10
2019-01-22T18:00:16.321Z,5.80
2019-01-22T18:02:44.591Z,5.03
2019-01-22T18:05:14.916Z,5.67
2019-01-22T18:07:43.145Z,8.50
2019-01-22T18:10:14.194Z,5.93
2019-01-22T18:12:42.422Z,7.10
2019-01-22T18:15:12.918Z,5.53
2019-01-22T18:17:41.146Z,7.80
2019-01-22T18:20:17.834Z,7.80
2019-01-22T18:22:46.074Z,6.83
2019-01-22T18:25:14.324Z,5.60
2019-01-22T18:27:42.553Z,7.43
2019-01-22T18:30:16.917Z,10.43
2019-01-22T18:32:45.157Z,5.70
2019-01-22T18:35:22.396Z,7.07
2019-01-22T18:37:50.880Z,6.00
2019-01-22T18:40:19.125Z,7.57
2019-01-22T18:42:47.446Z,8.67
2019-01-22T18:45:17.329Z,6.30
2019-01-22T18:47:45.566Z,8.50
2019-01-22T18:50:19.458Z,7.53
2019-01-22T18:52:47.687Z,7.17
2019-01-22T18:55:15.994Z,9.40
2019-01-22T18:57:44.229Z,6.20
2019-01-22T19:00:15.815Z,10.53
2019-01-22T19:02:44.059Z,9.47
2019-01-22T19:05:12.297Z,4.23
2019-01-22T19:07:40.538Z,5.77
2019-01-22T19:10:14.487Z,7.37
2019-01-22T19:12:42.725Z,12.13
2019-01-22T19:15:13.816Z,6.93
2019-01-22T19:17:42.041Z,9.77
2019-01-22T19:20:10.822Z,7.37
2019-01-22T19:22:39.069Z,10.13
2019-01-22T19:25:12.886Z,6.20
2019-01-22T19:27:42.905Z,6.70
2019-01-22T19:30:16.246Z,7.73
2019-01-22T19:32:44.484Z,9.97
2019-01-22T19:35:12.713Z,5.63
2019-01-22T19:37:40.962Z,7.33
2019-01-22T19:40:14.434Z,5.93
2019-01-22T19:42:42.683Z,8.90
2019-01-22T19:45:18.449Z,7.03
2019-01-22T19:47:47.553Z,6.03
2019-01-22T19:50:16.782Z,9.60
2019-01-22T19:52:45.042Z,9.07
2019-01-22T19:55:13.441Z,7.90
2019-01-22T19:57:41.686Z,11.80
2019-01-22T20:00:28.398Z,9.73
2019-01-22T20:02:56.637Z,6.83
2019-01-22T20:05:24.937Z,6.40
2019-01-22T20:07:53.182Z,6.60
2019-01-22T20:10:21.410Z,8.07
2019-01-22T20:12:49.666Z,4.93
2019-01-22T20:15:20.803Z,6.73
2019-01-22T20:17:49.038Z,6.00
2019-01-22T20:20:18.513Z,4.90
2019-01-22T20:22:46.766Z,6.40
2019-01-22T20:25:15.738Z,5.70
2019-01-22T20:27:47.990Z,7.33
2019-01-22T20:30:26.045Z,4.93
2019-01-22T20:32:54.286Z,8.00
2019-01-22T20:35:22.521Z,5.47
2019-01-22T20:37:50.766Z,10.60
2019-01-22T20:40:19.073Z,6.30
2019-01-22T20:42:47.309Z,5.30
2019-01-22T20:45:20.866Z,4.90
2019-01-22T20:47:49.185Z,6.40
2019-01-22T20:50:19.317Z,5.83
2019-01-22T20:52:47.385Z,4.90
2019-01-22T20:55:18.421Z,6.17
2019-01-22T20:57:46.653Z,8.17
2019-01-22T21:00:16.835Z,5.67
2019-01-22T21:02:45.070Z,6.07
2019-01-22T21:05:16.007Z,6.87
2019-01-22T21:07:44.278Z,4.13
2019-01-22T21:10:20.913Z,5.60
2019-01-22T21:12:49.150Z,4.37
2019-01-22T21:15:17.689Z,4.73
2019-01-22T21:17:45.920Z,5.63
2019-01-22T21:20:16.404Z,7.83
2019-01-22T21:22:44.638Z,12.00
2019-01-22T21:25:18.193Z,17.60
2019-01-22T21:27:46.436Z,14.20
2019-01-22T21:30:29.336Z,13.20
2019-01-22T21:32:57.577Z,14.07
2019-01-22T21:35:25.821Z,10.50
2019-01-22T21:37:54.060Z,16.17
2019-01-22T21:40:22.318Z,11.80
2019-01-22T21:42:50.722Z,10.00
2019-01-22T21:45:22.226Z,11.80
2019-01-22T21:47:50.461Z,9.67
2019-01-22T21:50:18.765Z,11.10
2019-01-22T21:52:46.997Z,8.70
2019-01-22T21:55:22.564Z,8.60
2019-01-22T21:57:50.794Z,11.20
2019-01-22T22:00:21.552Z,10.03
2019-01-22T22:02:49.774Z,10.07
2019-01-22T22:05:19.857Z,9.93
2019-01-22T22:07:48.094Z,8.43
2019-01-22T22:10:17.998Z,7.83
2019-01-22T22:12:46.224Z,9.10
2019-01-22T22:15:16.684Z,9.87
2019-01-22T22:17:44.913Z,9.33
2019-01-22T22:20:15.093Z,8.77
2019-01-22T22:22:43.321Z,6.60
2019-01-22T22:25:17.069Z,7.93
2019-01-22T22:27:45.311Z,9.50
2019-01-22T22:30:16.654Z,8.67
2019-01-22T22:32:44.885Z,8.80
2019-01-22T22:35:13.126Z,7.43
2019-01-22T22:37:41.357Z,6.80
2019-01-22T22:40:12.862Z,7.27
2019-01-22T22:42:41.105Z,11.43
2019-01-22T22:45:11.790Z,8.67
2019-01-22T22:47:40.018Z,9.07
2019-01-22T22:50:22.719Z,9.83
2019-01-22T22:52:50.950Z,8.40
2019-01-22T22:55:19.193Z,9.73
2019-01-22T22:57:47.432Z,7.20
2019-01-22T23:00:33.529Z,8.33
2019-01-22T23:03:02.461Z,8.33
2019-01-22T23:05:30.986Z,7.37
2019-01-22T23:07:59.217Z,8.17
2019-01-22T23:10:27.471Z,7.30
2019-01-22T23:12:55.701Z,7.67
2019-01-22T23:15:23.948Z,8.27
2019-01-22T23:17:52.177Z,7.03
2019-01-22T23:20:20.429Z,7.60
2019-01-22T23:22:48.657Z,6.60
2019-01-22T23:25:16.902Z,6.70
2019-01-22T23:27:45.209Z,5.73
2019-01-22T23:30:15.614Z,8.10
2019-01-22T23:32:43.866Z,5.93
2019-01-22T23:35:12.764Z,7.23
2019-01-22T23:37:41.006Z,6.73
2019-01-22T23:40:11.865Z,6.40
2019-01-22T23:42:40.106Z,5.47
2019-01-22T23:45:10.539Z,6.53
2019-01-22T23:47:39.053Z,6.00
2019-01-22T23:50:11.855Z,6.07
2019-01-22T23:52:40.090Z,6.27
2019-01-22T23:55:09.065Z,6.33
2019-01-22T23:57:37.385Z,6.40
